Time;durP1;ratioP1;P1;durP2;ratioP2;P2;SDS_P1;SDS_P2;PMS_P1;PMS_P2;Temp;Humidity;BMP_temperature;BMP_pressure;BME280_temperature;BME280_humidity;BME280_pressure;Samples;Min_cycle;Max_cycle;Signal;HPM_P1;HPM_P2
2023/08/21 00:01:24;;;;;;;11.52;3.60;;;17.80;99.90;;;;;;4887467;29;20234;-65
2023/08/21 00:03:50;;;;;;;13.98;4.18;;;17.80;99.90;;;;;;4896040;29;20529;-65
2023/08/21 00:06:16;;;;;;;19.25;3.92;;;17.80;99.90;;;;;;4889082;29;20642;-65
2023/08/21 00:08:42;;;;;;;14.25;3.95;;;17.80;99.90;;;;;;4889476;29;20200;-66
2023/08/21 00:11:08;;;;;;;12.95;4.13;;;17.70;99.90;;;;;;4890136;29;20201;-65
2023/08/21 00:13:33;;;;;;;15.75;3.72;;;17.70;99.90;;;;;;4890239;29;20189;-66
2023/08/21 00:16:00;;;;;;;15.38;4.45;;;17.70;99.90;;;;;;4888899;29;20186;-65
2023/08/21 00:18:25;;;;;;;14.20;3.92;;;17.60;99.90;;;;;;4893559;29;20188;-65
2023/08/21 00:20:51;;;;;;;10.02;3.60;;;17.70;99.90;;;;;;4881856;29;20205;-64
2023/08/21 00:23:17;;;;;;;17.77;4.72;;;17.70;99.90;;;;;;4901504;29;20200;-65
2023/08/21 00:25:47;;;;;;;18.58;4.60;;;17.60;99.90;;;;;;4890159;29;20706;-65
2023/08/21 00:28:14;;;;;;;18.92;4.10;;;17.50;99.90;;;;;;4895447;29;20193;-65
2023/08/21 00:30:41;;;;;;;16.63;4.50;;;17.50;99.90;;;;;;4895396;29;20243;-64
2023/08/21 00:33:07;;;;;;;16.42;4.55;;;17.50;99.90;;;;;;4887074;29;20673;-64
2023/08/21 00:35:34;;;;;;;16.98;5.15;;;17.50;99.90;;;;;;4894450;29;20181;-65
2023/08/21 00:37:59;;;;;;;15.48;4.60;;;17.40;99.90;;;;;;4896148;29;20192;-64
2023/08/21 00:40:25;;;;;;;14.52;4.80;;;17.40;99.90;;;;;;4890490;29;20236;-64
2023/08/21 00:42:51;;;;;;;19.73;4.90;;;17.40;99.90;;;;;;4894477;29;20197;-65
2023/08/21 00:45:17;;;;;;;15.70;4.47;;;17.40;99.90;;;;;;4888473;29;20598;-65
2023/08/21 00:47:43;;;;;;;17.38;4.80;;;17.30;99.90;;;;;;4900800;29;20207;-64
2023/08/21 00:50:11;;;;;;;15.15;5.15;;;17.30;99.90;;;;;;4881752;29;20741;-65
2023/08/21 00:52:40;;;;;;;18.02;5.20;;;17.30;99.90;;;;;;4881344;29;20283;-64
2023/08/21 00:55:07;;;;;;;17.95;5.40;;;17.20;99.90;;;;;;4879823;29;20210;-64
2023/08/21 00:57:33;;;;;;;16.67;5.60;;;17.20;99.90;;;;;;4879151;29;20193;-64
2023/08/21 01:00:04;;;;;;;14.65;5.53;;;17.20;99.90;;;;;;4880878;29;20227;-66
2023/08/21 01:02:30;;;;;;;18.50;5.60;;;17.10;99.90;;;;;;4883966;29;20189;-65
2023/08/21 01:04:56;;;;;;;16.77;5.97;;;17.10;99.90;;;;;;4870560;29;21595;-64
2023/08/21 01:07:22;;;;;;;14.00;5.65;;;17.10;99.90;;;;;;4881404;29;20205;-65
2023/08/21 01:10:11;;;;;;;17.55;6.90;;;17.10;99.90;;;;;;4887524;29;20231;-64
2023/08/21 01:12:50;;;;;;;15.90;6.10;;;17.10;99.90;;;;;;4899454;29;20185;-64
2023/08/21 01:15:17;;;;;;;18.85;5.88;;;17.00;99.90;;;;;;4885530;29;20199;-63
2023/08/21 01:17:45;;;;;;;17.27;6.32;;;17.00;99.90;;;;;;4884619;29;20193;-63
2023/08/21 01:20:12;;;;;;;18.13;6.50;;;17.00;99.90;;;;;;4889194;29;20213;-64
2023/08/21 01:22:40;;;;;;;18.15;6.90;;;17.00;99.90;;;;;;4891482;29;20208;-64
2023/08/21 01:25:08;;;;;;;15.50;6.28;;;17.00;99.90;;;;;;4905133;29;20198;-64
2023/08/21 01:27:35;;;;;;;22.38;11.32;;;17.00;99.90;;;;;;4895853;29;20184;-64
2023/08/21 01:30:03;;;;;;;20.48;6.72;;;17.00;99.90;;;;;;4875504;29;20197;-64
2023/08/21 01:32:34;;;;;;;20.08;6.25;;;17.00;99.90;;;;;;4877410;29;20192;-64
2023/08/21 01:35:00;;;;;;;21.08;6.65;;;17.00;99.90;;;;;;4879496;29;20197;-65
2023/08/21 01:37:27;;;;;;;19.92;7.85;;;17.00;99.90;;;;;;4890381;29;20191;-65
2023/08/21 01:39:53;;;;;;;17.02;6.78;;;17.00;99.90;;;;;;4901439;29;20224;-63
2023/08/21 01:42:19;;;;;;;18.05;6.57;;;16.90;99.90;;;;;;4892631;29;20192;-65
2023/08/21 01:44:47;;;;;;;26.25;7.85;;;16.90;99.90;;;;;;4882959;29;20315;-64
2023/08/21 01:47:13;;;;;;;19.63;6.95;;;16.90;99.90;;;;;;4893128;29;20278;-65
2023/08/21 01:49:39;;;;;;;19.55;6.75;;;16.90;99.90;;;;;;4875817;29;20197;-64
2023/08/21 01:52:06;;;;;;;20.20;6.13;;;16.90;99.90;;;;;;4890817;29;20223;-64
2023/08/21 01:54:32;;;;;;;14.98;6.32;;;16.90;99.90;;;;;;4894325;29;20216;-63
2023/08/21 01:56:58;;;;;;;26.20;7.93;;;16.80;99.90;;;;;;4884733;29;20181;-63
2023/08/21 01:59:24;;;;;;;16.42;6.93;;;16.80;99.90;;;;;;4897965;29;20199;-64
2023/08/21 02:01:50;;;;;;;17.67;7.57;;;16.80;99.90;;;;;;4892514;29;20246;-64
2023/08/21 02:04:16;;;;;;;16.25;6.47;;;16.80;99.90;;;;;;4893768;29;20196;-65
2023/08/21 02:06:43;;;;;;;16.92;6.40;;;16.80;99.90;;;;;;4879980;29;20216;-64
2023/08/21 02:09:10;;;;;;;20.27;7.35;;;16.70;99.90;;;;;;4898913;29;20570;-66
2023/08/21 02:11:36;;;;;;;19.55;6.97;;;16.80;99.90;;;;;;4897572;29;20220;-65
2023/08/21 02:14:02;;;;;;;15.63;6.20;;;16.70;99.90;;;;;;4874689;29;20228;-66
2023/08/21 02:16:28;;;;;;;22.20;7.28;;;16.70;99.90;;;;;;4881946;29;20204;-66
2023/08/21 02:18:54;;;;;;;23.58;6.75;;;16.70;99.90;;;;;;4898369;29;20568;-65
2023/08/21 02:21:21;;;;;;;16.27;5.95;;;16.70;99.90;;;;;;4886772;29;20212;-64
2023/08/21 02:23:47;;;;;;;15.98;6.18;;;16.70;99.90;;;;;;4887972;29;20188;-65
2023/08/21 02:26:12;;;;;;;14.82;6.78;;;16.70;99.90;;;;;;4900412;29;20554;-65
2023/08/21 02:28:39;;;;;;;15.02;5.90;;;16.60;99.90;;;;;;4898139;29;20189;-64
2023/08/21 02:31:08;;;;;;;19.63;7.00;;;16.60;99.90;;;;;;4898073;29;20728;-64
2023/08/21 02:33:34;;;;;;;14.13;6.38;;;16.60;99.90;;;;;;4897946;29;20200;-65
2023/08/21 02:36:00;;;;;;;13.77;6.45;;;16.60;99.90;;;;;;4888117;29;20193;-63
2023/08/21 02:38:30;;;;;;;15.63;6.47;;;16.60;99.90;;;;;;4889856;29;20252;-65
2023/08/21 02:40:56;;;;;;;20.08;6.85;;;16.60;99.90;;;;;;4890035;29;20241;-63
2023/08/21 02:43:22;;;;;;;15.73;6.38;;;16.50;99.90;;;;;;4888094;29;20196;-64
2023/08/21 02:45:48;;;;;;;19.10;7.15;;;16.50;99.90;;;;;;4892680;29;20540;-64
2023/08/21 02:48:14;;;;;;;17.75;7.38;;;16.50;99.90;;;;;;4896605;29;20201;-64
2023/08/21 02:50:41;;;;;;;20.67;6.38;;;16.50;99.90;;;;;;4890814;29;20192;-65
2023/08/21 02:53:07;;;;;;;16.30;5.90;;;16.50;99.90;;;;;;4904601;29;20689;-64
2023/08/21 02:55:33;;;;;;;15.48;6.50;;;16.50;99.90;;;;;;4897941;29;20267;-64
2023/08/21 02:57:59;;;;;;;14.32;6.43;;;16.40;99.90;;;;;;4896415;29;20177;-63
2023/08/21 03:00:25;;;;;;;15.88;6.20;;;16.40;99.90;;;;;;4890737;29;20717;-65
2023/08/21 03:02:51;;;;;;;16.77;6.50;;;16.40;99.90;;;;;;4880631;29;20193;-64
2023/08/21 03:05:17;;;;;;;19.10;6.53;;;16.40;99.90;;;;;;4891072;29;20211;-65
2023/08/21 03:07:43;;;;;;;16.25;6.53;;;16.40;99.90;;;;;;4879130;29;20280;-64
2023/08/21 03:10:09;;;;;;;18.45;6.70;;;16.40;99.90;;;;;;4879284;29;20291;-63
2023/08/21 03:12:36;;;;;;;14.77;6.25;;;16.40;99.90;;;;;;4887164;29;20747;-63
2023/08/21 03:15:03;;;;;;;18.08;6.60;;;16.40;99.90;;;;;;4906649;29;20189;-63
2023/08/21 03:17:29;;;;;;;17.48;7.00;;;16.40;99.90;;;;;;4895065;29;20191;-63
2023/08/21 03:19:55;;;;;;;17.63;6.80;;;16.40;99.90;;;;;;4887084;29;20221;-64
2023/08/21 03:22:22;;;;;;;18.52;7.45;;;16.30;99.90;;;;;;4897366;29;20200;-64
2023/08/21 03:24:48;;;;;;;23.02;7.50;;;16.30;99.90;;;;;;4895212;29;20189;-64
2023/08/21 03:27:18;;;;;;;15.75;7.18;;;16.30;99.90;;;;;;4895838;29;20196;-64
2023/08/21 03:29:50;;;;;;;19.92;7.60;;;16.30;99.90;;;;;;4896327;29;20192;-63
2023/08/21 03:32:17;;;;;;;23.98;8.07;;;16.30;99.90;;;;;;4895898;29;20664;-64
2023/08/21 03:34:44;;;;;;;21.10;8.00;;;16.30;99.90;;;;;;4911720;29;20193;-64
2023/08/21 03:37:10;;;;;;;18.38;7.35;;;16.30;99.90;;;;;;4891851;29;20570;-64
2023/08/21 03:39:36;;;;;;;18.75;6.90;;;16.30;99.90;;;;;;4898978;29;20241;-64
2023/08/21 03:42:03;;;;;;;20.23;7.32;;;16.30;99.90;;;;;;4893742;29;20233;-64
2023/08/21 03:44:29;;;;;;;17.75;6.70;;;16.30;99.90;;;;;;4889753;29;20654;-64
2023/08/21 03:46:55;;;;;;;17.90;7.45;;;16.30;99.90;;;;;;4896851;29;20236;-64
2023/08/21 03:49:21;;;;;;;25.42;7.45;;;16.30;99.90;;;;;;4890157;29;20205;-63
2023/08/21 03:51:48;;;;;;;18.65;7.03;;;16.20;99.90;;;;;;4897001;29;20188;-63
2023/08/21 03:54:14;;;;;;;20.15;7.38;;;16.20;99.90;;;;;;4895294;29;20184;-63
2023/08/21 03:56:40;;;;;;;16.35;7.18;;;16.20;99.90;;;;;;4912539;29;20654;-63
2023/08/21 03:59:06;;;;;;;14.57;7.18;;;16.20;99.90;;;;;;4895455;29;20201;-64
2023/08/21 04:01:32;;;;;;;16.83;7.53;;;16.20;99.90;;;;;;4910814;29;20217;-63
2023/08/21 04:03:58;;;;;;;17.90;8.10;;;16.20;99.90;;;;;;4908055;29;20192;-63
2023/08/21 04:06:23;;;;;;;19.13;8.43;;;16.20;99.90;;;;;;4896597;29;20188;-63
2023/08/21 04:08:49;;;;;;;21.40;7.85;;;16.20;99.90;;;;;;4896021;29;20554;-63
2023/08/21 04:11:16;;;;;;;20.77;8.13;;;16.20;99.90;;;;;;4888189;29;20196;-64
2023/08/21 04:13:42;;;;;;;17.20;7.90;;;16.20;99.90;;;;;;4894978;29;20203;-64
2023/08/21 04:16:08;;;;;;;22.67;8.73;;;16.20;99.90;;;;;;4897430;29;20189;-64
2023/08/21 04:18:36;;;;;;;15.23;7.80;;;16.20;99.90;;;;;;4890187;29;20192;-64
2023/08/21 04:21:02;;;;;;;16.05;8.48;;;16.10;99.90;;;;;;4884119;29;20315;-64
2023/08/21 04:23:28;;;;;;;24.52;8.73;;;16.10;99.90;;;;;;4894004;29;20268;-64
2023/08/21 04:26:03;;;;;;;21.70;8.48;;;16.10;99.90;;;;;;4892338;29;20204;-64
2023/08/21 04:28:32;;;;;;;21.08;9.07;;;16.10;99.90;;;;;;4894712;29;20255;-64
2023/08/21 04:30:59;;;;;;;19.58;8.73;;;16.10;99.90;;;;;;4893853;29;20199;-63
2023/08/21 04:33:27;;;;;;;22.00;8.55;;;16.10;99.90;;;;;;4894422;29;20653;-64
2023/08/21 04:35:53;;;;;;;17.85;9.30;;;16.10;99.90;;;;;;4896688;29;20593;-64
2023/08/21 04:38:20;;;;;;;19.88;8.73;;;16.10;99.90;;;;;;4895603;29;20284;-63
2023/08/21 04:40:46;;;;;;;21.38;9.05;;;16.10;99.90;;;;;;4888393;29;20283;-65
2023/08/21 04:43:13;;;;;;;17.63;8.45;;;16.10;99.90;;;;;;4894311;29;20197;-64
2023/08/21 04:45:53;;;;;;;26.80;8.65;;;16.10;99.90;;;;;;4894127;29;20275;-64
2023/08/21 04:48:21;;;;;;;20.10;8.98;;;16.10;99.90;;;;;;4910094;29;20180;-65
2023/08/21 04:50:49;;;;;;;18.13;8.90;;;16.10;99.90;;;;;;4911102;29;20188;-63
2023/08/21 04:53:15;;;;;;;19.85;8.38;;;16.10;99.90;;;;;;4895955;29;20521;-63
2023/08/21 04:55:41;;;;;;;17.52;8.55;;;16.10;99.90;;;;;;4882925;29;20201;-64
2023/08/21 04:58:09;;;;;;;16.63;7.95;;;16.10;99.90;;;;;;4894932;29;20197;-64
2023/08/21 05:00:35;;;;;;;23.90;8.60;;;16.20;99.90;;;;;;4907379;29;20300;-64
2023/08/21 05:03:02;;;;;;;16.65;8.38;;;16.20;99.90;;;;;;4894900;29;20259;-63
2023/08/21 05:05:29;;;;;;;17.95;8.10;;;16.20;99.90;;;;;;4894829;29;20206;-64
2023/08/21 05:07:55;;;;;;;23.05;7.82;;;16.30;99.90;;;;;;4895542;29;20196;-64
2023/08/21 05:10:22;;;;;;;16.10;7.07;;;16.30;99.90;;;;;;4885765;29;20634;-64
2023/08/21 05:12:48;;;;;;;16.90;6.82;;;16.30;99.90;;;;;;4893831;29;20370;-65
2023/08/21 05:15:15;;;;;;;17.20;7.45;;;16.30;99.90;;;;;;4893300;29;20189;-65
2023/08/21 05:17:41;;;;;;;24.23;7.57;;;16.40;99.90;;;;;;4895295;29;20192;-64
2023/08/21 05:20:07;;;;;;;16.83;7.22;;;16.40;99.90;;;;;;4894547;29;20818;-64
2023/08/21 05:22:34;;;;;;;19.02;6.97;;;16.50;99.90;;;;;;4893197;29;20201;-64
2023/08/21 05:25:00;;;;;;;13.88;6.47;;;16.50;99.90;;;;;;4891284;29;20216;-64
2023/08/21 05:27:25;;;;;;;18.23;6.50;;;16.60;99.90;;;;;;4899827;29;20192;-64
2023/08/21 05:29:51;;;;;;;15.52;6.10;;;16.60;99.90;;;;;;4892285;29;20192;-64
2023/08/21 05:32:17;;;;;;;13.98;7.00;;;16.60;99.90;;;;;;4888619;29;20685;-64
2023/08/21 05:34:44;;;;;;;18.98;6.80;;;16.70;99.90;;;;;;4905532;29;20189;-64
2023/08/21 05:37:11;;;;;;;16.90;5.65;;;16.70;99.90;;;;;;4910943;29;20196;-65
2023/08/21 05:39:37;;;;;;;15.77;5.80;;;16.80;99.90;;;;;;4876119;29;20666;-65
2023/08/21 05:42:04;;;;;;;25.05;6.15;;;16.90;99.90;;;;;;4910306;29;20739;-65
2023/08/21 05:44:30;;;;;;;16.13;5.63;;;16.90;99.90;;;;;;4892025;29;20216;-65
2023/08/21 05:46:57;;;;;;;14.70;5.10;;;17.00;99.90;;;;;;4898693;29;20196;-65
2023/08/21 05:49:23;;;;;;;21.10;5.60;;;17.00;99.90;;;;;;4897125;29;20628;-65
2023/08/21 05:51:49;;;;;;;15.70;5.13;;;17.10;99.90;;;;;;4899340;29;20276;-65
2023/08/21 05:54:15;;;;;;;12.77;4.68;;;17.20;99.90;;;;;;4889908;29;20260;-65
2023/08/21 05:56:42;;;;;;;14.88;4.82;;;17.20;99.90;;;;;;4914205;29;20223;-65
2023/08/21 05:59:10;;;;;;;10.70;4.38;;;17.30;99.90;;;;;;4886342;29;20653;-66
2023/08/21 06:01:36;;;;;;;16.52;4.63;;;17.40;99.90;;;;;;4908396;29;20715;-65
2023/08/21 06:04:02;;;;;;;8.27;4.03;;;17.40;99.90;;;;;;4891378;29;20200;-65
2023/08/21 06:06:40;;;;;;;10.45;3.95;;;17.50;99.90;;;;;;4889795;29;20185;-65
2023/08/21 06:09:07;;;;;;;12.30;3.78;;;17.60;99.90;;;;;;4892952;29;20588;-66
2023/08/21 06:11:33;;;;;;;12.18;3.67;;;17.70;99.90;;;;;;4885856;29;20518;-65
2023/08/21 06:13:59;;;;;;;14.05;3.58;;;17.70;99.90;;;;;;4896050;29;20191;-64
2023/08/21 06:16:27;;;;;;;15.38;3.45;;;17.80;99.90;;;;;;4894677;29;20192;-65
2023/08/21 06:18:53;;;;;;;14.38;3.40;;;17.90;99.90;;;;;;4897796;29;20196;-64
2023/08/21 06:21:19;;;;;;;12.43;3.20;;;18.00;99.90;;;;;;4885709;29;20293;-65
2023/08/21 06:23:45;;;;;;;10.90;3.50;;;18.00;99.90;;;;;;4885910;29;20189;-65
2023/08/21 06:26:11;;;;;;;10.30;3.00;;;18.10;99.90;;;;;;4891867;29;20573;-65
2023/08/21 06:28:37;;;;;;;11.43;3.40;;;18.10;99.90;;;;;;4886856;29;20197;-65
2023/08/21 06:31:07;;;;;;;9.63;2.97;;;18.20;99.90;;;;;;4895571;29;20203;-65
2023/08/21 06:33:33;;;;;;;10.05;3.25;;;18.30;99.90;;;;;;4896900;29;20188;-65
2023/08/21 06:35:59;;;;;;;11.65;3.47;;;18.40;99.90;;;;;;4874133;29;20579;-65
2023/08/21 06:38:26;;;;;;;6.70;2.15;;;18.40;99.90;;;;;;4899686;29;20184;-66
2023/08/21 06:40:53;;;;;;;16.88;3.05;;;18.50;99.90;;;;;;4891416;29;20251;-65
2023/08/21 06:43:19;;;;;;;22.42;2.90;;;18.60;99.90;;;;;;4876275;29;20284;-63
2023/08/21 06:45:46;;;;;;;6.90;2.40;;;18.60;99.90;;;;;;4887711;29;20214;-65
2023/08/21 06:48:13;;;;;;;12.40;2.67;;;18.70;99.90;;;;;;4894337;29;20201;-64
2023/08/21 06:50:39;;;;;;;8.85;2.28;;;18.70;99.90;;;;;;4898130;29;20222;-65
2023/08/21 06:53:05;;;;;;;7.25;2.42;;;18.80;99.90;;;;;;4894552;29;20271;-64
2023/08/21 06:55:32;;;;;;;8.90;2.50;;;18.90;99.90;;;;;;4886455;29;20280;-65
2023/08/21 06:57:58;;;;;;;7.60;2.10;;;19.00;99.90;;;;;;4888388;29;20201;-65
2023/08/21 07:00:24;;;;;;;13.25;2.50;;;19.00;99.90;;;;;;4884566;29;20750;-64
2023/08/21 07:02:49;;;;;;;11.85;2.08;;;19.10;99.90;;;;;;4889740;29;20200;-65
2023/08/21 07:05:16;;;;;;;9.23;1.80;;;19.20;99.90;;;;;;4891283;29;20204;-65
2023/08/21 07:07:41;;;;;;;6.57;1.92;;;19.30;99.90;;;;;;4895845;29;20200;-65
2023/08/21 07:10:08;;;;;;;4.88;1.60;;;19.30;99.90;;;;;;4895388;29;20212;-65
2023/08/21 07:12:34;;;;;;;9.77;2.28;;;19.40;99.90;;;;;;4891688;29;20641;-64
2023/08/21 07:15:00;;;;;;;11.63;1.83;;;19.50;99.90;;;;;;4895715;29;20201;-65
2023/08/21 07:17:26;;;;;;;5.50;1.48;;;19.50;99.90;;;;;;4886761;29;20191;-66
2023/08/21 07:19:52;;;;;;;8.10;2.22;;;19.60;99.90;;;;;;4892525;29;20204;-65
2023/08/21 07:22:20;;;;;;;6.55;1.70;;;19.70;99.90;;;;;;4890686;29;20232;-66
2023/08/21 07:24:46;;;;;;;4.07;1.75;;;19.70;99.90;;;;;;4888176;29;20189;-65
2023/08/21 07:27:12;;;;;;;10.52;2.00;;;19.80;99.90;;;;;;4890775;29;20623;-66
2023/08/21 07:29:38;;;;;;;5.03;1.40;;;19.90;99.90;;;;;;4896441;29;20193;-65
2023/08/21 07:32:04;;;;;;;4.82;1.63;;;19.90;99.90;;;;;;4897017;29;20256;-66
2023/08/21 07:34:30;;;;;;;3.67;1.40;;;20.00;99.90;;;;;;4896199;29;20209;-65
2023/08/21 07:36:56;;;;;;;6.25;1.25;;;20.00;99.90;;;;;;4897689;29;20192;-65
2023/08/21 07:39:22;;;;;;;5.60;1.63;;;20.10;99.90;;;;;;4896107;29;20192;-65
2023/08/21 07:41:48;;;;;;;3.95;1.48;;;20.20;99.90;;;;;;4892962;29;20237;-67
2023/08/21 07:44:14;;;;;;;6.95;2.00;;;20.30;99.90;;;;;;4894616;29;20288;-66
2023/08/21 07:46:40;;;;;;;7.82;1.42;;;20.30;99.90;;;;;;4897110;29;20279;-65
2023/08/21 07:49:05;;;;;;;6.30;1.70;;;20.40;99.90;;;;;;4896698;29;20276;-66
2023/08/21 07:51:31;;;;;;;6.38;1.67;;;20.50;99.90;;;;;;4896738;29;20581;-65
2023/08/21 07:53:57;;;;;;;5.88;1.58;;;20.60;99.90;;;;;;4880706;29;20196;-64
2023/08/21 07:56:23;;;;;;;5.43;1.50;;;20.60;99.90;;;;;;4888646;29;20570;-66
2023/08/21 07:58:50;;;;;;;3.97;1.58;;;20.70;99.90;;;;;;4894661;29;20197;-66
2023/08/21 08:01:15;;;;;;;6.68;2.05;;;20.70;99.90;;;;;;4893015;29;20208;-65
2023/08/21 08:03:41;;;;;;;6.38;1.83;;;20.80;99.90;;;;;;4889417;29;20309;-65
2023/08/21 08:06:07;;;;;;;8.80;1.90;;;20.90;99.90;;;;;;4890191;29;20241;-65
2023/08/21 08:08:33;;;;;;;6.40;1.63;;;20.90;99.90;;;;;;4893122;29;20650;-65
2023/08/21 08:11:03;;;;;;;5.53;1.50;;;21.00;99.90;;;;;;4892227;29;20595;-65
2023/08/21 08:13:30;;;;;;;5.90;1.52;;;21.10;99.90;;;;;;4894322;29;20181;-65
2023/08/21 08:15:56;;;;;;;6.82;2.00;;;21.20;99.90;;;;;;4904735;29;20186;-65
2023/08/21 08:18:21;;;;;;;8.05;2.00;;;21.20;99.90;;;;;;4889599;29;20188;-65
2023/08/21 08:20:47;;;;;;;10.02;3.53;;;21.30;99.90;;;;;;4890934;29;20275;-65
2023/08/21 08:23:13;;;;;;;8.68;1.70;;;21.30;99.90;;;;;;4905593;29;20196;-65
2023/08/21 08:25:39;;;;;;;4.20;1.70;;;21.40;99.90;;;;;;4892471;29;20264;-64
2023/08/21 08:28:06;;;;;;;7.75;1.90;;;21.40;99.90;;;;;;4895240;29;20650;-64
2023/08/21 08:30:32;;;;;;;5.72;1.80;;;21.50;99.90;;;;;;4877577;29;20268;-64
2023/08/21 08:32:58;;;;;;;11.63;1.95;;;21.60;99.90;;;;;;4894264;29;20264;-66
2023/08/21 08:35:24;;;;;;;5.72;1.60;;;21.60;99.90;;;;;;4890397;29;20193;-64
2023/08/21 08:37:50;;;;;;;2.75;1.42;;;21.70;99.90;;;;;;4889193;29;20193;-65
2023/08/21 08:40:16;;;;;;;4.88;1.70;;;21.80;99.90;;;;;;4908063;29;20232;-64
2023/08/21 08:42:42;;;;;;;5.53;1.67;;;21.80;99.90;;;;;;4888471;29;20721;-65
2023/08/21 08:45:11;;;;;;;5.50;2.17;;;21.80;99.90;;;;;;4892550;29;20199;-64
2023/08/21 08:47:37;;;;;;;6.43;1.60;;;21.90;99.90;;;;;;4888150;29;20188;-65
2023/08/21 08:50:05;;;;;;;5.45;1.60;;;21.90;99.90;;;;;;4880862;29;20212;-65
2023/08/21 08:52:36;;;;;;;7.15;1.60;;;22.00;99.90;;;;;;4905212;29;20189;-65
2023/08/21 08:55:03;;;;;;;8.65;1.60;;;22.10;99.90;;;;;;4891072;29;20259;-65
2023/08/21 08:57:30;;;;;;;9.07;1.92;;;22.10;99.90;;;;;;4904465;29;20189;-65
2023/08/21 08:59:56;;;;;;;5.05;1.50;;;22.20;99.90;;;;;;4895186;29;20193;-65
2023/08/21 09:02:27;;;;;;;7.43;1.58;;;22.20;99.90;;;;;;4893163;29;20611;-64
2023/08/21 09:04:53;;;;;;;6.28;1.70;;;22.20;99.90;;;;;;4893226;29;20196;-64
2023/08/21 09:07:20;;;;;;;4.18;1.70;;;22.30;99.90;;;;;;4892121;29;20589;-65
2023/08/21 09:09:49;;;;;;;8.52;1.70;;;22.30;99.90;;;;;;4903675;29;20196;-65
2023/08/21 09:12:16;;;;;;;8.73;1.63;;;22.40;99.90;;;;;;4896628;29;20193;-65
2023/08/21 09:14:44;;;;;;;7.25;1.60;;;22.40;99.90;;;;;;4896224;29;20188;-65
2023/08/21 09:17:10;;;;;;;7.28;1.85;;;22.50;99.90;;;;;;4895528;29;20188;-65
2023/08/21 09:19:36;;;;;;;6.75;1.80;;;22.50;99.90;;;;;;4896446;29;20229;-64
2023/08/21 09:22:11;;;;;;;4.97;1.55;;;22.60;99.90;;;;;;4882853;29;20232;-65
2023/08/21 09:24:59;;;;;;;4.57;1.25;;;22.70;99.90;;;;;;4909761;29;20192;-65
2023/08/21 09:27:25;;;;;;;8.07;1.65;;;22.80;99.90;;;;;;4897171;29;20223;-65
2023/08/21 09:29:51;;;;;;;3.88;1.40;;;22.80;99.90;;;;;;4895830;29;20224;-65
2023/08/21 09:32:17;;;;;;;6.07;1.42;;;22.80;99.90;;;;;;4898564;29;20208;-65
2023/08/21 09:34:43;;;;;;;4.72;1.60;;;22.80;99.90;;;;;;4897375;29;20655;-65
2023/08/21 09:37:10;;;;;;;5.07;1.48;;;22.90;99.90;;;;;;4897087;29;20235;-65
2023/08/21 09:39:37;;;;;;;10.15;1.55;;;22.90;99.90;;;;;;4910834;29;20249;-65
2023/08/21 09:42:09;;;;;;;4.82;1.33;;;23.00;99.90;;;;;;4898195;29;20243;-66
2023/08/21 09:44:39;;;;;;;3.90;1.40;;;23.00;99.90;;;;;;4895920;29;20321;-65
2023/08/21 09:47:09;;;;;;;3.25;1.23;;;23.00;99.90;;;;;;4900056;29;20203;-65
2023/08/21 09:49:37;;;;;;;6.50;1.42;;;23.10;99.90;;;;;;4896768;29;20185;-65
2023/08/21 09:52:05;;;;;;;2.67;1.30;;;23.10;99.90;;;;;;4912821;29;20188;-64
2023/08/21 09:54:33;;;;;;;5.38;1.35;;;23.20;99.90;;;;;;4894618;29;20220;-64
2023/08/21 09:57:02;;;;;;;3.63;1.40;;;23.20;99.90;;;;;;4897189;29;20196;-64
2023/08/21 09:59:29;;;;;;;5.13;1.60;;;23.20;99.90;;;;;;4900092;29;20215;-64
2023/08/21 10:02:00;;;;;;;7.05;1.20;;;23.30;99.90;;;;;;4890259;29;20260;-64
2023/08/21 10:04:28;;;;;;;7.32;1.63;;;23.30;99.90;;;;;;4895413;29;20192;-66
2023/08/21 10:06:55;;;;;;;4.45;1.40;;;23.30;99.90;;;;;;4880649;29;20208;-64
2023/08/21 10:09:23;;;;;;;3.88;1.38;;;23.40;99.90;;;;;;4880831;29;20197;-65
2023/08/21 10:11:51;;;;;;;5.07;1.20;;;23.50;99.90;;;;;;4896087;29;20198;-64
2023/08/21 10:14:18;;;;;;;5.10;1.30;;;23.50;99.90;;;;;;4897128;29;20212;-65
2023/08/21 10:16:45;;;;;;;7.43;1.10;;;23.50;99.90;;;;;;4902156;29;20244;-65
2023/08/21 10:19:14;;;;;;;3.58;1.35;;;23.60;99.90;;;;;;4897267;29;20239;-65
2023/08/21 10:21:40;;;;;;;5.78;1.52;;;23.60;99.90;;;;;;4899105;29;20212;-65
2023/08/21 10:24:06;;;;;;;4.30;1.65;;;23.70;99.90;;;;;;4894390;29;20204;-65
2023/08/21 10:26:39;;;;;;;4.28;1.38;;;23.70;99.90;;;;;;4896349;29;20189;-65
2023/08/21 10:29:07;;;;;;;4.68;1.73;;;23.80;99.90;;;;;;4898336;29;20299;-65
2023/08/21 10:31:38;;;;;;;3.65;1.35;;;23.80;99.90;;;;;;4885867;29;20721;-66
2023/08/21 10:34:06;;;;;;;4.20;1.40;;;23.80;99.90;;;;;;4880547;29;20685;-66
2023/08/21 10:36:44;;;;;;;4.82;1.50;;;23.90;99.90;;;;;;4909032;29;20192;-67
2023/08/21 10:39:31;;;;;;;4.95;1.50;;;23.90;99.90;;;;;;4892094;29;20192;-66
2023/08/21 10:42:13;;;;;;;9.55;3.15;;;23.90;99.90;;;;;;4886507;29;20699;-66
2023/08/21 10:44:42;;;;;;;2.60;1.30;;;24.00;99.90;;;;;;4892749;29;20267;-68
2023/08/21 10:47:20;;;;;;;4.32;1.33;;;24.00;99.90;;;;;;4908820;29;20227;-66
2023/08/21 10:49:49;;;;;;;7.97;1.38;;;24.00;99.90;;;;;;4891258;29;20276;-66
2023/08/21 10:52:22;;;;;;;5.60;1.75;;;24.00;99.90;;;;;;4897800;29;20215;-64
2023/08/21 10:54:51;;;;;;;6.30;1.45;;;24.10;99.90;;;;;;4894005;29;20184;-66
2023/08/21 10:57:18;;;;;;;4.10;1.60;;;24.20;99.90;;;;;;4893607;29;20276;-66
2023/08/21 10:59:57;;;;;;;3.63;1.50;;;24.30;99.90;;;;;;4898613;29;20199;-66
2023/08/21 11:02:28;;;;;;;4.97;1.50;;;24.30;99.90;;;;;;4897567;29;20204;-65
2023/08/21 11:04:55;;;;;;;4.88;1.60;;;24.40;99.90;;;;;;4894356;29;20231;-66
2023/08/21 11:07:21;;;;;;;4.65;1.60;;;24.50;99.90;;;;;;4890983;29;20213;-65
2023/08/21 11:09:48;;;;;;;4.43;1.30;;;24.50;99.70;;;;;;4886994;29;20240;-65
2023/08/21 11:12:16;;;;;;;5.10;1.50;;;24.50;99.10;;;;;;4883643;29;20661;-65
2023/08/21 11:14:44;;;;;;;5.35;1.42;;;24.60;98.80;;;;;;4898399;29;20188;-66
2023/08/21 11:17:10;;;;;;;7.22;3.13;;;24.60;98.40;;;;;;4891702;29;20196;-65
2023/08/21 11:19:37;;;;;;;4.90;1.83;;;24.70;98.20;;;;;;4903115;29;20184;-66
2023/08/21 11:22:05;;;;;;;4.43;1.60;;;24.80;98.20;;;;;;4887067;29;20228;-65
2023/08/21 11:24:48;;;;;;;5.53;1.77;;;24.80;98.30;;;;;;4893524;29;20196;-66
2023/08/21 11:27:17;;;;;;;5.18;1.60;;;24.90;97.40;;;;;;4888738;29;20192;-66
2023/08/21 11:29:49;;;;;;;6.70;1.70;;;25.00;97.20;;;;;;4894814;29;20275;-66
2023/08/21 11:32:18;;;;;;;6.75;1.80;;;24.90;97.20;;;;;;4888462;29;20185;-64
2023/08/21 11:34:53;;;;;;;4.65;1.38;;;25.00;97.50;;;;;;4889529;29;20197;-66
2023/08/21 11:37:21;;;;;;;8.55;1.60;;;25.00;97.50;;;;;;4906247;29;20190;-66
2023/08/21 11:39:52;;;;;;;8.70;2.00;;;25.10;97.20;;;;;;4894238;29;20241;-66
2023/08/21 11:42:20;;;;;;;5.50;1.70;;;25.10;96.90;;;;;;4897238;29;20259;-66
2023/08/21 11:44:53;;;;;;;8.98;1.85;;;25.20;96.90;;;;;;4897956;29;20219;-66
2023/08/21 11:47:23;;;;;;;5.60;1.48;;;25.30;96.80;;;;;;4892438;29;20191;-66
2023/08/21 11:49:49;;;;;;;3.83;1.40;;;25.40;96.80;;;;;;4890530;29;20224;-65
2023/08/21 11:52:25;;;;;;;8.45;1.65;;;25.60;96.30;;;;;;4886598;29;20707;-66
2023/08/21 11:54:53;;;;;;;4.53;1.70;;;25.70;95.90;;;;;;4896667;29;20642;-65
2023/08/21 11:57:20;;;;;;;7.22;1.70;;;25.80;95.70;;;;;;4892561;29;20193;-66
2023/08/21 11:59:54;;;;;;;5.28;1.70;;;25.80;95.20;;;;;;4891449;29;20193;-65
2023/08/21 12:02:28;;;;;;;7.28;2.10;;;25.80;94.90;;;;;;4891031;29;20541;-66
2023/08/21 12:05:14;;;;;;;4.57;1.63;;;25.80;94.70;;;;;;4896271;29;20283;-65
2023/08/21 12:07:40;;;;;;;5.57;2.10;;;25.70;94.60;;;;;;4888599;29;20184;-65
2023/08/21 12:10:07;;;;;;;5.75;1.77;;;25.60;95.00;;;;;;4891478;29;20204;-64
2023/08/21 12:12:33;;;;;;;10.50;2.25;;;25.60;95.00;;;;;;4895010;29;20215;-66
2023/08/21 12:14:59;;;;;;;6.63;1.60;;;25.60;95.20;;;;;;4885134;29;20192;-66
2023/08/21 12:17:25;;;;;;;5.55;1.45;;;25.70;94.90;;;;;;4889569;29;20188;-65
2023/08/21 12:19:50;;;;;;;4.63;1.58;;;25.70;94.60;;;;;;4895982;29;20195;-66
2023/08/21 12:22:16;;;;;;;3.70;1.65;;;25.80;94.40;;;;;;4889315;29;20184;-65
2023/08/21 12:24:42;;;;;;;4.45;1.70;;;25.70;94.40;;;;;;4877635;29;20192;-65
2023/08/21 12:27:08;;;;;;;4.60;1.80;;;25.70;94.80;;;;;;4896851;29;20263;-65
2023/08/21 12:29:35;;;;;;;5.75;2.13;;;25.70;94.90;;;;;;4885163;29;20202;-65
2023/08/21 12:32:01;;;;;;;12.10;2.13;;;25.80;94.60;;;;;;4896181;29;20197;-66
2023/08/21 12:34:27;;;;;;;8.27;2.40;;;25.80;94.50;;;;;;4896016;29;20205;-65
2023/08/21 12:36:53;;;;;;;6.45;2.08;;;25.70;94.50;;;;;;4895882;29;20267;-66
2023/08/21 12:39:19;;;;;;;4.57;2.03;;;25.80;94.60;;;;;;4896228;29;20218;-64
2023/08/21 12:41:45;;;;;;;5.50;2.03;;;25.80;94.20;;;;;;4894057;29;20712;-65